Impacts TAF Board INFO
FOR SITUATIONAL AWARENESS. NOT TO BE USED FOR FLIGHT PLANNING PURPOSES.
IDs:

KATL - Atlanta/Hartsfield-J, GA, US

Issued at 0942 UTC 22 May 2018
Updated at 1015 UTC 22 May 2018
Potential Impact None Slight Moderate High
Time0952Z 22/11Z 22/12Z 22/13Z 22/14Z 22/15Z 22/16Z 22/17Z 22/18Z 22/19Z 22/20Z 22/21Z 22/22Z 22/23Z>>
Type OBS PRVL PRVL PRVL PRVL PRVL PRVL PRVL PRVL
  [TEMP]  
PRVL
  [TEMP]  
PRVL
  [TEMP]  
PRVL
  [TEMP]  
PRVL PRVL
VIS 6 >6 >6 >6 >6 >6 >6 >6 >6
  [4]  
>6
  [4]  
>6
  [4]  
>6
  [4]  
>6 >6
CIG 6 8 8 8 8 15 15 35 35
  [15]  
35
  [15]  
35
  [15]  
35
  [15]  
35 35
Cover OVC OVC OVC OVC OVC BKN BKN BKN BKN
  [OVC]  
BKN
  [OVC]  
BKN
  [OVC]  
BKN
  [OVC]  
BKN BKN
FltCat IFR IFR IFR IFR IFR MVFR MVFR VFR VFR
  [MVFR]  
VFR
  [MVFR]  
VFR
  [MVFR]  
VFR
  [MVFR]  
VFR VFR
WX BR -- -- -- -- VCSH VCSH SHRA SHRA
  [TSRA]  
SHRA
  [TSRA]  
SHRA
  [TSRA]  
SHRA
  [TSRA]  
SHRA SHRA
WDir 140 130 130 130 130 150 150 150 150
[150]
150
[150]
150
[150]
150
[150]
150 150
WSpd 5 6 6 6 6 5 5 6 6
  [6]  
6
  [6]  
6
  [6]  
6
  [6]  
6 6
WGst -- -- -- -- -- -- -- -- --
  [--]  
--
  [--]  
--
  [--]  
--
  [--]  
-- --

Raw TAF
KATL 220942Z 2210/2312 13006KT P6SM OVC008
  FM221500 15005KT P6SM VCSH BKN015
  FM221700 15006KT P6SM SHRA BKN035
  TEMPO 2218/2222 4SM TSRA OVC015CB
  FM230200 15004KT P6SM VCSH SCT035 BKN050
  FM230800 VRB03KT P6SM OVC015
  FM231000 VRB03KT P6SM OVC009


Raw METAR
KATL 220952Z 14005KT 6SM BR OVC006 21/19 A3009 RMK AO2 SLP182 CIG 005V008 T02060189
KATL 220852Z 14005KT 8SM BKN008 BKN029 21/18 A3008 RMK AO2 SLP178 BKN008 V SCT T02060183 56004
KATL 220825Z 13005KT 10SM FEW009 BKN024 BKN070 21/18 A3008 RMK AO2 T02060183
KATL 220810Z 13007KT 10SM FEW009 SCT024 BKN070 21/18 A3009 RMK AO2 T02060183
KATL 220752Z 12006KT 10SM BKN009 OVC021 21/18 A3009 RMK AO2 SLP180 BKN009 V SCT CIG 008V011 T02060183
KATL 220747Z 13006KT 10SM BKN009 OVC021 21/18 A3009 RMK AO2 CIG 008V011

METAR Board
Radar Display
Forecast Discussion

FOR SITUATIONAL AWARENESS. NOT TO BE USED FOR FLIGHT PLANNING PURPOSES.